Time,TemperatureF,DewpointF,PressureIn,WindDirection,WindDirectionDegrees,WindSpeedMPH,WindSpeedGustMPH,Humidity,HourlyPrecipIn,Conditions,Clouds,dailyrainin,SoftwareType,DateUTC
2013-05-29 00:01:00,31.0,29.0,-100.00,NW,306,12.0,19.0,93,-99.99,,,-99.99,,2013-05-29 06:01:00,
2013-05-29 00:11:00,31.0,29.0,-100.00,NW,304,12.0,19.0,93,-99.99,,,-99.99,,2013-05-29 06:11:00,
2013-05-29 00:21:00,31.0,29.0,-100.00,WNW,303,12.0,18.0,93,-99.99,,,-99.99,,2013-05-29 06:21:00,
2013-05-29 00:31:00,31.0,29.0,-100.00,WNW,303,12.0,18.0,93,-99.99,,,-99.99,,2013-05-29 06:31:00,
2013-05-29 00:41:00,31.0,29.0,-100.00,NW,309,13.0,19.0,94,-99.99,,,-99.99,,2013-05-29 06:41:00,
2013-05-29 00:52:00,31.0,30.0,-100.00,NW,307,15.0,20.0,95,-99.99,,,-99.99,,2013-05-29 06:52:00,
2013-05-29 01:01:00,31.0,30.0,-100.00,NW,307,15.0,20.0,95,-99.99,,,-99.99,,2013-05-29 07:01:00,
2013-05-29 01:11:00,31.0,30.0,-100.00,NW,304,16.0,21.0,96,-99.99,,,-99.99,,2013-05-29 07:11:00,
2013-05-29 01:21:00,31.0,30.0,-100.00,NW,304,16.0,22.0,96,-99.99,,,-99.99,,2013-05-29 07:21:00,
2013-05-29 01:34:00,31.0,30.0,-100.00,NW,304,16.0,22.0,96,-99.99,,,-99.99,,2013-05-29 07:34:00,
2013-05-29 01:42:00,31.0,30.0,-100.00,WNW,301,14.0,22.0,95,-99.99,,,-99.99,,2013-05-29 07:42:00,
2013-05-29 01:52:00,31.0,30.0,-100.00,WNW,302,12.0,19.0,95,-99.99,,,-99.99,,2013-05-29 07:52:00,
2013-05-29 02:02:00,31.0,30.0,-100.00,WNW,302,12.0,19.0,95,-99.99,,,-99.99,,2013-05-29 08:02:00,
2013-05-29 02:11:00,31.0,29.0,-100.00,WNW,303,11.0,19.0,94,-99.99,,,-99.99,,2013-05-29 08:11:00,
2013-05-29 02:21:00,31.0,29.0,-100.00,NW,304,11.0,21.0,94,-99.99,,,-99.99,,2013-05-29 08:21:00,
2013-05-29 02:31:00,31.0,29.0,-100.00,NW,305,10.0,17.0,94,-99.99,,,-99.99,,2013-05-29 08:31:00,
2013-05-29 02:41:00,31.0,29.0,-100.00,NW,305,10.0,17.0,94,-99.99,,,-99.99,,2013-05-29 08:41:00,
2013-05-29 02:52:00,31.0,29.0,-100.00,NW,306,8.0,17.0,94,-99.99,,,-99.99,,2013-05-29 08:52:00,
2013-05-29 03:01:00,31.0,29.0,-100.00,NW,306,8.0,17.0,94,-99.99,,,-99.99,,2013-05-29 09:01:00,
2013-05-29 03:11:00,31.0,29.0,-100.00,NW,309,10.0,18.0,94,-99.99,,,-99.99,,2013-05-29 09:11:00,
2013-05-29 03:21:00,31.0,30.0,-100.00,NW,310,12.0,26.0,95,-99.99,,,-99.99,,2013-05-29 09:21:00,
2013-05-29 03:32:00,31.0,30.0,-100.00,NW,310,12.0,26.0,95,-99.99,,,-99.99,,2013-05-29 09:32:00,
2013-05-29 03:42:00,30.0,28.0,-100.00,WNW,303,12.0,22.0,94,-99.99,,,-99.99,,2013-05-29 09:42:00,
2013-05-29 03:52:00,30.0,28.0,-100.00,WNW,301,11.0,20.0,94,-99.99,,,-99.99,,2013-05-29 09:52:00,
2013-05-29 04:02:00,30.0,28.0,-100.00,WNW,301,11.0,20.0,94,-99.99,,,-99.99,,2013-05-29 10:02:00,
2013-05-29 04:12:00,30.0,29.0,-100.00,NW,308,14.0,24.0,95,-99.99,,,-99.99,,2013-05-29 10:12:00,
2013-05-29 04:22:00,30.0,29.0,-100.00,NW,310,15.0,26.0,95,-99.99,,,-99.99,,2013-05-29 10:22:00,
2013-05-29 04:32:00,30.0,29.0,-100.00,NW,311,15.0,28.0,96,-99.99,,,-99.99,,2013-05-29 10:32:00,
2013-05-29 04:42:00,30.0,29.0,-100.00,NW,311,15.0,28.0,96,-99.99,,,-99.99,,2013-05-29 10:42:00,
2013-05-29 04:53:00,30.0,29.0,-100.00,NW,317,13.0,21.0,97,-99.99,,,-99.99,,2013-05-29 10:53:00,
2013-05-29 05:02:00,30.0,29.0,-100.00,NW,317,13.0,21.0,97,-99.99,,,-99.99,,2013-05-29 11:02:00,
2013-05-29 05:11:00,30.0,29.0,-100.00,NW,312,14.0,22.0,97,-99.99,,,-99.99,,2013-05-29 11:11:00,
2013-05-29 05:21:00,30.0,29.0,-100.00,NW,316,15.0,22.0,97,-99.99,,,-99.99,,2013-05-29 11:21:00,
2013-05-29 05:32:00,30.0,29.0,-100.00,NW,313,14.0,25.0,97,-99.99,,,-99.99,,2013-05-29 11:32:00,
2013-05-29 05:41:00,30.0,29.0,-100.00,NW,313,14.0,25.0,97,-99.99,,,-99.99,,2013-05-29 11:41:00,
2013-05-29 05:52:00,30.0,29.0,-100.00,NW,312,14.0,20.0,97,-99.99,,,-99.99,,2013-05-29 11:52:00,
2013-05-29 06:01:00,30.0,29.0,-100.00,NW,312,14.0,20.0,97,-99.99,,,-99.99,,2013-05-29 12:01:00,
2013-05-29 06:11:00,30.0,29.0,-100.00,NW,315,15.0,23.0,97,-99.99,,,-99.99,,2013-05-29 12:11:00,
2013-05-29 06:21:00,30.0,29.0,-100.00,NW,319,9.0,17.0,97,-99.99,,,-99.99,,2013-05-29 12:21:00,
2013-05-29 06:31:00,30.0,29.0,-100.00,NW,319,9.0,17.0,97,-99.99,,,-99.99,,2013-05-29 12:31:00,
2013-05-29 06:42:00,30.0,29.0,-100.00,NW,317,14.0,22.0,97,-99.99,,,-99.99,,2013-05-29 12:42:00,
2013-05-29 06:52:00,30.0,29.0,-100.00,NW,319,12.0,21.0,97,-99.99,,,-99.99,,2013-05-29 12:52:00,
2013-05-29 07:01:00,30.0,29.0,-100.00,NW,319,12.0,21.0,97,-99.99,,,-99.99,,2013-05-29 13:01:00,
2013-05-29 07:11:00,30.0,29.0,-100.00,NW,311,10.0,23.0,97,-99.99,,,-99.99,,2013-05-29 13:11:00,
2013-05-29 07:21:00,30.0,29.0,-100.00,NW,323,11.0,19.0,97,-99.99,,,-99.99,,2013-05-29 13:21:00,
2013-05-29 07:31:00,30.0,29.0,-100.00,NW,310,7.0,14.0,97,-99.99,,,-99.99,,2013-05-29 13:31:00,
2013-05-29 07:42:00,30.0,29.0,-100.00,NW,310,7.0,14.0,97,-99.99,,,-99.99,,2013-05-29 13:42:00,
2013-05-29 07:53:00,30.0,29.0,-100.00,NW,316,7.0,16.0,97,-99.99,,,-99.99,,2013-05-29 13:53:00,
2013-05-29 08:01:00,30.0,29.0,-100.00,NW,316,7.0,16.0,97,-99.99,,,-99.99,,2013-05-29 14:01:00,
2013-05-29 08:11:00,30.0,29.0,-100.00,WNW,301,7.0,16.0,97,-99.99,,,-99.99,,2013-05-29 14:11:00,
2013-05-29 08:21:00,30.0,29.0,-100.00,NW,308,9.0,19.0,97,-99.99,,,-99.99,,2013-05-29 14:21:00,
2013-05-29 08:31:00,30.0,29.0,-100.00,NW,308,9.0,19.0,97,-99.99,,,-99.99,,2013-05-29 14:31:00,
2013-05-29 08:41:00,31.0,30.0,-100.00,NW,305,9.0,21.0,97,-99.99,,,-99.99,,2013-05-29 14:41:00,
2013-05-29 08:52:00,31.0,30.0,-100.00,NW,306,11.0,28.0,96,-99.99,,,-99.99,,2013-05-29 14:52:00,
2013-05-29 09:01:00,31.0,30.0,-100.00,NW,306,11.0,28.0,96,-99.99,,,-99.99,,2013-05-29 15:01:00,
2013-05-29 09:11:00,31.0,30.0,-100.00,NW,315,8.0,17.0,96,-99.99,,,-99.99,,2013-05-29 15:11:00,
2013-05-29 09:21:00,31.0,30.0,-100.00,NW,304,9.0,17.0,96,-99.99,,,-99.99,,2013-05-29 15:21:00,
2013-05-29 09:32:00,31.0,30.0,-100.00,NW,304,9.0,17.0,96,-99.99,,,-99.99,,2013-05-29 15:32:00,
2013-05-29 09:42:00,32.0,31.0,-100.00,NW,314,10.0,18.0,95,-99.99,,,-99.99,,2013-05-29 15:42:00,
2013-05-29 09:53:00,32.0,31.0,-100.00,NW,314,8.0,15.0,95,-99.99,,,-99.99,,2013-05-29 15:53:00,
2013-05-29 10:03:00,32.0,31.0,-100.00,NW,314,8.0,15.0,95,-99.99,,,-99.99,,2013-05-29 16:03:00,
2013-05-29 10:12:00,32.0,30.0,-100.00,WNW,303,8.0,17.0,94,-99.99,,,-99.99,,2013-05-29 16:12:00,
2013-05-29 10:22:00,33.0,31.0,-100.00,NW,312,8.0,14.0,93,-99.99,,,-99.99,,2013-05-29 16:22:00,
2013-05-29 10:32:00,33.0,31.0,-100.00,NW,312,8.0,14.0,93,-99.99,,,-99.99,,2013-05-29 16:32:00,
2013-05-29 10:42:00,34.0,32.0,-100.00,NW,319,10.0,19.0,92,-99.99,,,-99.99,,2013-05-29 16:42:00,
2013-05-29 10:52:00,33.0,31.0,-100.00,NNW,328,9.0,24.0,93,-99.99,,,-99.99,,2013-05-29 16:52:00,
2013-05-29 11:02:00,33.0,31.0,-100.00,NNW,328,9.0,24.0,93,-99.99,,,-99.99,,2013-05-29 17:02:00,
2013-05-29 11:12:00,34.0,32.0,-100.00,NW,322,9.0,18.0,94,-99.99,,,-99.99,,2013-05-29 17:12:00,
2013-05-29 11:22:00,34.0,31.0,-100.00,NW,313,11.0,24.0,89,-99.99,,,-99.99,,2013-05-29 17:22:00,
2013-05-29 11:32:00,34.0,31.0,-100.00,NW,304,11.0,20.0,90,-99.99,,,-99.99,,2013-05-29 17:32:00,
2013-05-29 11:42:00,34.0,31.0,-100.00,NW,304,11.0,20.0,90,-99.99,,,-99.99,,2013-05-29 17:42:00,
2013-05-29 11:52:00,34.0,31.0,-100.00,NW,310,9.0,22.0,90,-99.99,,,-99.99,,2013-05-29 17:52:00,
2013-05-29 12:01:00,34.0,31.0,-100.00,NW,310,9.0,22.0,90,-99.99,,,-99.99,,2013-05-29 18:01:00,
2013-05-29 12:13:00,34.0,31.0,-100.00,WNW,302,8.0,18.0,90,-99.99,,,-99.99,,2013-05-29 18:13:00,
2013-05-29 12:22:00,34.0,31.0,-100.00,WNW,296,9.0,22.0,90,-99.99,,,-99.99,,2013-05-29 18:22:00,
2013-05-29 12:32:00,34.0,31.0,-100.00,WNW,296,9.0,22.0,90,-99.99,,,-99.99,,2013-05-29 18:32:00,
2013-05-29 12:41:00,34.0,31.0,-100.00,WNW,292,11.0,23.0,89,-99.99,,,-99.99,,2013-05-29 18:41:00,
2013-05-29 12:52:00,34.0,31.0,-100.00,WNW,302,14.0,36.0,88,-99.99,,,-99.99,,2013-05-29 18:52:00,
2013-05-29 13:01:00,34.0,31.0,-100.00,WNW,302,14.0,36.0,88,-99.99,,,-99.99,,2013-05-29 19:01:00,
2013-05-29 13:11:00,34.0,31.0,-100.00,NW,304,17.0,29.0,87,-99.99,,,-99.99,,2013-05-29 19:11:00,
2013-05-29 13:21:00,33.0,31.0,-100.00,NW,306,13.0,35.0,91,-99.99,,,-99.99,,2013-05-29 19:21:00,
2013-05-29 13:32:00,33.0,31.0,-100.00,NW,306,13.0,35.0,91,-99.99,,,-99.99,,2013-05-29 19:32:00,
2013-05-29 13:44:00,34.0,31.0,-100.00,WNW,299,14.0,31.0,89,-99.99,,,-99.99,,2013-05-29 19:44:00,
2013-05-29 13:53:00,36.0,32.0,-100.00,NW,304,12.0,33.0,86,-99.99,,,-99.99,,2013-05-29 19:53:00,
2013-05-29 14:02:00,36.0,32.0,-100.00,NW,304,12.0,33.0,86,-99.99,,,-99.99,,2013-05-29 20:02:00,
2013-05-29 14:11:00,37.0,32.0,-100.00,WNW,302,14.0,29.0,82,-99.99,,,-99.99,,2013-05-29 20:11:00,
2013-05-29 14:22:00,37.0,32.0,-100.00,WNW,302,14.0,29.0,82,-99.99,,,-99.99,,2013-05-29 20:22:00,
2013-05-29 14:32:00,37.0,32.0,-100.00,WNW,302,14.0,29.0,82,-99.99,,,-99.99,,2013-05-29 20:32:00,
2013-05-29 14:42:00,37.0,32.0,-100.00,WNW,302,14.0,29.0,82,-99.99,,,-99.99,,2013-05-29 20:42:00,
2013-05-29 15:22:00,37.0,32.0,-100.00,NW,308,12.0,29.0,81,-99.99,,,-99.99,,2013-05-29 21:22:00,
2013-05-29 15:33:00,37.0,32.0,-100.00,NW,308,12.0,29.0,81,-99.99,,,-99.99,,2013-05-29 21:33:00,
2013-05-29 15:43:00,37.0,31.0,-100.00,WNW,300,11.0,30.0,80,-99.99,,,-99.99,,2013-05-29 21:43:00,
2013-05-29 15:53:00,37.0,31.0,-100.00,WNW,300,11.0,30.0,80,-99.99,,,-99.99,,2013-05-29 21:53:00,
2013-05-29 16:03:00,37.0,31.0,-100.00,WNW,300,11.0,30.0,80,-99.99,,,-99.99,,2013-05-29 22:03:00,
2013-05-29 16:12:00,35.0,30.0,-100.00,NW,305,11.0,23.0,83,-99.99,,,-99.99,,2013-05-29 22:12:00,
2013-05-29 16:23:00,34.0,30.0,-100.00,WNW,293,9.0,26.0,86,-99.99,,,-99.99,,2013-05-29 22:23:00,
2013-05-29 16:33:00,34.0,30.0,-100.00,NW,310,9.0,29.0,85,-99.99,,,-99.99,,2013-05-29 22:33:00,
2013-05-29 16:42:00,34.0,30.0,-100.00,NW,310,9.0,29.0,85,-99.99,,,-99.99,,2013-05-29 22:42:00,
2013-05-29 16:53:00,35.0,30.0,-100.00,WNW,299,13.0,23.0,82,-99.99,,,-99.99,,2013-05-29 22:53:00,
2013-05-29 17:02:00,35.0,30.0,-100.00,WNW,299,13.0,23.0,82,-99.99,,,-99.99,,2013-05-29 23:02:00,
2013-05-29 17:12:00,34.0,29.0,-100.00,NW,307,20.0,56.0,81,-99.99,,,-99.99,,2013-05-29 23:12:00,
2013-05-29 17:21:00,33.0,29.0,-100.00,NW,310,20.0,40.0,86,-99.99,,,-99.99,,2013-05-29 23:21:00,
2013-05-29 17:33:00,35.0,29.0,-100.00,NW,310,22.0,39.0,77,-99.99,,,-99.99,,2013-05-29 23:33:00,
2013-05-29 17:42:00,35.0,29.0,-100.00,NW,310,22.0,39.0,77,-99.99,,,-99.99,,2013-05-29 23:42:00,
2013-05-29 17:53:00,37.0,29.0,-100.00,NW,315,20.0,32.0,73,-99.99,,,-99.99,,2013-05-29 23:53:00,
2013-05-29 18:01:00,37.0,29.0,-100.00,NW,315,20.0,32.0,73,-99.99,,,-99.99,,2013-05-30 00:01:00,
2013-05-29 18:11:00,36.0,29.0,-100.00,NW,313,20.0,36.0,75,-99.99,,,-99.99,,2013-05-30 00:11:00,
2013-05-29 18:21:00,34.0,30.0,-100.00,NW,319,20.0,33.0,84,-99.99,,,-99.99,,2013-05-30 00:21:00,
2013-05-29 18:31:00,34.0,30.0,-100.00,NW,319,20.0,33.0,84,-99.99,,,-99.99,,2013-05-30 00:31:00,
2013-05-29 18:41:00,34.0,30.0,-100.00,NW,319,20.0,33.0,84,-99.99,,,-99.99,,2013-05-30 00:41:00,
2013-05-29 18:52:00,33.0,30.0,-100.00,NW,313,17.0,35.0,89,-99.99,,,-99.99,,2013-05-30 00:52:00,
2013-05-29 19:01:00,33.0,30.0,-100.00,NW,313,17.0,35.0,89,-99.99,,,-99.99,,2013-05-30 01:01:00,
2013-05-29 19:11:00,33.0,29.0,-100.00,NW,311,20.0,30.0,86,-99.99,,,-99.99,,2013-05-30 01:11:00,
2013-05-29 19:21:00,33.0,30.0,-100.00,NW,312,18.0,31.0,87,-99.99,,,-99.99,,2013-05-30 01:21:00,
2013-05-29 19:31:00,33.0,30.0,-100.00,NW,304,13.0,30.0,87,-99.99,,,-99.99,,2013-05-30 01:31:00,
2013-05-29 19:41:00,33.0,30.0,-100.00,NW,304,13.0,30.0,87,-99.99,,,-99.99,,2013-05-30 01:41:00,
2013-05-29 19:52:00,33.0,30.0,-100.00,WNW,294,9.0,24.0,87,-99.99,,,-99.99,,2013-05-30 01:52:00,
2013-05-29 20:01:00,33.0,30.0,-100.00,WNW,294,9.0,24.0,87,-99.99,,,-99.99,,2013-05-30 02:01:00,
2013-05-29 20:11:00,33.0,29.0,-100.00,WNW,295,9.0,20.0,85,-99.99,,,-99.99,,2013-05-30 02:11:00,
2013-05-29 20:21:00,33.0,28.0,-100.00,West,272,7.0,14.0,83,-99.99,,,-99.99,,2013-05-30 02:21:00,
2013-05-29 20:32:00,33.0,28.0,-100.00,West,272,7.0,14.0,83,-99.99,,,-99.99,,2013-05-30 02:32:00,
2013-05-29 20:42:00,33.0,28.0,-100.00,West,272,7.0,14.0,83,-99.99,,,-99.99,,2013-05-30 02:42:00,
2013-05-29 20:52:00,33.0,28.0,-100.00,West,272,7.0,14.0,83,-99.99,,,-99.99,,2013-05-30 02:52:00,
2013-05-29 21:01:00,33.0,29.0,-100.00,WNW,283,6.0,15.0,86,-99.99,,,-99.99,,2013-05-30 03:01:00,
2013-05-29 21:11:00,33.0,30.0,-100.00,West,276,4.0,11.0,87,-99.99,,,-99.99,,2013-05-30 03:11:00,
2013-05-29 21:21:00,32.0,29.0,-100.00,West,267,5.0,16.0,90,-99.99,,,-99.99,,2013-05-30 03:21:00,
2013-05-29 21:32:00,32.0,29.0,-100.00,West,267,5.0,16.0,90,-99.99,,,-99.99,,2013-05-30 03:32:00,
2013-05-29 21:43:00,32.0,30.0,-100.00,West,277,9.0,27.0,93,-99.99,,,-99.99,,2013-05-30 03:43:00,
2013-05-29 21:53:00,31.0,29.0,-100.00,WNW,301,9.0,23.0,93,-99.99,,,-99.99,,2013-05-30 03:53:00,
2013-05-29 22:02:00,31.0,29.0,-100.00,WNW,301,9.0,23.0,93,-99.99,,,-99.99,,2013-05-30 04:02:00,
2013-05-29 22:12:00,31.0,29.0,-100.00,West,276,9.0,21.0,94,-99.99,,,-99.99,,2013-05-30 04:12:00,
2013-05-29 22:23:00,32.0,30.0,-100.00,West,278,8.0,24.0,93,-99.99,,,-99.99,,2013-05-30 04:23:00,
2013-05-29 22:32:00,32.0,30.0,-100.00,West,280,10.0,26.0,94,-99.99,,,-99.99,,2013-05-30 04:32:00,
2013-05-29 22:42:00,32.0,30.0,-100.00,West,280,10.0,26.0,94,-99.99,,,-99.99,,2013-05-30 04:42:00,
2013-05-29 22:53:00,31.0,29.0,-100.00,West,281,11.0,32.0,92,-99.99,,,-99.99,,2013-05-30 04:53:00,
2013-05-29 23:02:00,31.0,29.0,-100.00,West,281,11.0,32.0,92,-99.99,,,-99.99,,2013-05-30 05:02:00,
2013-05-29 23:12:00,31.0,29.0,-100.00,West,277,9.0,22.0,91,-99.99,,,-99.99,,2013-05-30 05:12:00,
2013-05-29 23:21:00,31.0,27.0,-100.00,WNW,298,13.0,31.0,86,-99.99,,,-99.99,,2013-05-30 05:21:00,
2013-05-29 23:32:00,31.0,27.0,-100.00,NW,305,13.0,25.0,85,-99.99,,,-99.99,,2013-05-30 05:32:00,
2013-05-29 23:42:00,31.0,27.0,-100.00,NW,305,13.0,25.0,85,-99.99,,,-99.99,,2013-05-30 05:42:00,
2013-05-29 23:52:00,30.0,26.0,-100.00,WNW,303,16.0,32.0,86,-99.99,,,-99.99,,2013-05-30 05:52:00,